createdAt,value
2018-07-04T00:00:47.985Z,55.73
2018-07-04T00:01:47.982Z,56.11
2018-07-04T00:02:47.979Z,55.53
2018-07-04T00:03:48.308Z,55.73
2018-07-04T00:04:47.977Z,55.63
2018-07-04T00:05:47.973Z,55.34
2018-07-04T00:06:47.941Z,55.05
2018-07-04T00:07:47.932Z,55.15
2018-07-04T00:08:47.921Z,55.53
2018-07-04T00:09:47.911Z,55.82
2018-07-04T00:10:48.053Z,55.44
2018-07-04T00:11:47.893Z,55.73
2018-07-04T00:12:47.896Z,55.53
2018-07-04T00:13:51.380Z,55.53
2018-07-04T00:14:47.923Z,55.82
2018-07-04T00:15:47.931Z,55.82
2018-07-04T00:16:47.869Z,56.59
2018-07-04T00:17:54.821Z,56.18
2018-07-04T00:18:47.846Z,56.40
2018-07-04T00:19:47.851Z,56.78
2018-07-04T00:20:49.943Z,55.63
2018-07-04T00:21:47.827Z,56.30
2018-07-04T00:22:47.819Z,56.01
2018-07-04T00:23:47.808Z,55.91
2018-07-04T00:24:47.790Z,56.01
2018-07-04T00:25:47.848Z,56.68
2018-07-04T00:26:47.787Z,56.66
2018-07-04T00:27:47.766Z,57.04
2018-07-04T00:28:47.766Z,56.56
2018-07-04T00:29:47.758Z,56.56
2018-07-04T00:30:47.740Z,56.37
2018-07-04T00:31:47.737Z,57.33
2018-07-04T00:32:47.741Z,56.95
2018-07-04T00:33:47.719Z,57.62
2018-07-04T00:34:47.750Z,57.14
2018-07-04T00:35:47.712Z,57.43
2018-07-04T00:36:47.692Z,57.43
2018-07-04T00:37:47.825Z,57.62
2018-07-04T00:38:47.683Z,57.90
2018-07-04T00:39:47.679Z,58.39
2018-07-04T00:40:47.662Z,58.10
2018-07-04T00:41:47.656Z,58.17
2018-07-04T00:42:47.648Z,57.88
2018-07-04T00:43:47.642Z,57.59
2018-07-04T00:44:48.638Z,58.17
2018-07-04T00:45:47.621Z,57.88
2018-07-04T00:46:47.625Z,57.88
2018-07-04T00:47:47.771Z,58.07
2018-07-04T00:48:47.610Z,57.62
2018-07-04T00:49:47.603Z,57.50
2018-07-04T00:50:47.593Z,58.07
2018-07-04T00:51:47.586Z,58.36
2018-07-04T00:52:47.565Z,58.45
2018-07-04T00:53:47.701Z,57.59
2018-07-04T00:54:47.553Z,57.88
2018-07-04T00:55:47.554Z,57.59
2018-07-04T00:56:47.533Z,57.59
2018-07-04T00:57:47.534Z,57.30
2018-07-04T00:58:47.524Z,57.50
2018-07-04T00:59:47.517Z,56.92
2018-07-04T01:00:47.510Z,57.68
2018-07-04T01:01:47.494Z,57.78
2018-07-04T01:02:47.488Z,57.59
2018-07-04T01:03:47.529Z,57.21
2018-07-04T01:04:47.483Z,57.59
2018-07-04T01:05:47.475Z,57.68
2018-07-04T01:06:47.449Z,57.21
2018-07-04T01:07:47.440Z,57.40
2018-07-04T01:08:47.545Z,57.50
2018-07-04T01:09:47.505Z,57.21
2018-07-04T01:10:47.426Z,57.88
2018-07-04T01:11:47.424Z,57.59
2018-07-04T01:12:47.420Z,57.40
2018-07-04T01:13:47.382Z,57.30
2018-07-04T01:14:47.400Z,57.50
2018-07-04T01:15:47.405Z,57.30
2018-07-04T01:16:47.362Z,57.88
2018-07-04T01:17:47.380Z,57.78
2018-07-04T01:18:47.359Z,57.59
2018-07-04T01:19:47.370Z,57.30
2018-07-04T01:20:47.345Z,57.30
2018-07-04T01:21:47.334Z,57.78
2018-07-04T01:22:47.315Z,57.40
2018-07-04T01:23:47.312Z,57.40
2018-07-04T01:24:47.303Z,57.40
2018-07-04T01:25:47.326Z,57.59
2018-07-04T01:26:48.328Z,57.40
2018-07-04T01:27:47.288Z,57.01
2018-07-04T01:28:47.287Z,56.92
2018-07-04T01:29:47.266Z,57.68
2018-07-04T01:30:47.298Z,57.78
2018-07-04T01:31:47.251Z,57.21
2018-07-04T01:32:47.261Z,57.78
2018-07-04T01:33:47.235Z,57.11
2018-07-04T01:34:47.830Z,57.40
2018-07-04T01:35:47.209Z,57.11
2018-07-04T01:36:47.577Z,57.21
2018-07-04T01:37:47.214Z,57.11
2018-07-04T01:38:47.217Z,57.21
2018-07-04T01:39:47.178Z,57.78
2018-07-04T01:40:47.187Z,57.21
2018-07-04T01:41:47.180Z,57.68
2018-07-04T01:42:47.364Z,57.97
2018-07-04T01:43:47.149Z,57.78
2018-07-04T01:44:47.136Z,57.78
2018-07-04T01:45:47.125Z,57.40
2018-07-04T01:46:47.116Z,57.50
2018-07-04T01:47:47.149Z,57.59
2018-07-04T01:48:47.317Z,57.59
2018-07-04T01:49:47.097Z,56.92
2018-07-04T01:50:47.904Z,57.88
2018-07-04T01:51:47.087Z,57.88
2018-07-04T01:52:47.128Z,57.97
2018-07-04T01:53:47.095Z,57.88
2018-07-04T01:54:47.057Z,57.30
2018-07-04T01:55:47.033Z,57.59
2018-07-04T01:56:47.073Z,57.68
2018-07-04T01:57:47.065Z,57.30
2018-07-04T01:58:47.024Z,57.21
2018-07-04T01:59:47.010Z,57.88
2018-07-04T02:00:47.008Z,57.78
2018-07-04T02:01:46.984Z,57.88
2018-07-04T02:02:46.978Z,57.11
2018-07-04T02:03:47.016Z,57.97
2018-07-04T02:04:46.968Z,57.78
2018-07-04T02:05:46.965Z,57.46
2018-07-04T02:06:46.989Z,57.46
2018-07-04T02:07:46.957Z,57.95
2018-07-04T02:08:46.938Z,57.85
2018-07-04T02:09:47.065Z,57.65
2018-07-04T02:10:46.913Z,57.85
2018-07-04T02:11:46.929Z,57.85
2018-07-04T02:12:46.912Z,57.56
2018-07-04T02:13:46.889Z,57.85
2018-07-04T02:14:47.847Z,57.65
2018-07-04T02:15:46.919Z,57.85
2018-07-04T02:16:46.870Z,58.81
2018-07-04T02:17:46.877Z,58.71
2018-07-04T02:18:47.056Z,58.52
2018-07-04T02:19:47.370Z,58.62
2018-07-04T02:20:46.835Z,58.62
2018-07-04T02:21:46.820Z,58.71
2018-07-04T02:22:46.804Z,58.52
2018-07-04T02:23:46.931Z,58.62
2018-07-04T02:24:46.838Z,58.33
2018-07-04T02:25:46.788Z,58.62
2018-07-04T02:26:46.777Z,58.62
2018-07-04T02:27:46.805Z,58.33
2018-07-04T02:28:46.757Z,58.71
2018-07-04T02:29:46.756Z,58.52
2018-07-04T02:30:46.894Z,58.52
2018-07-04T02:31:46.741Z,58.71
2018-07-04T02:32:46.736Z,58.81
2018-07-04T02:33:46.887Z,59.09
2018-07-04T02:34:46.703Z,58.52
2018-07-04T02:35:46.730Z,58.33
2018-07-04T02:36:46.691Z,59.00
2018-07-04T02:37:46.684Z,58.81
2018-07-04T02:38:46.670Z,58.81
2018-07-04T02:39:46.661Z,58.91
2018-07-04T02:40:46.666Z,58.42
2018-07-04T02:41:46.658Z,58.71
2018-07-04T02:42:46.653Z,59.00
2018-07-04T02:43:46.627Z,58.42
2018-07-04T02:44:46.616Z,58.52
2018-07-04T02:45:46.624Z,58.62
2018-07-04T02:46:46.633Z,58.42
2018-07-04T02:47:46.595Z,58.49
2018-07-04T02:48:46.591Z,58.81
2018-07-04T02:49:46.566Z,58.39
2018-07-04T02:50:46.596Z,58.30
2018-07-04T02:51:46.558Z,58.11
2018-07-04T02:52:46.555Z,58.11
2018-07-04T02:53:46.531Z,58.30
2018-07-04T02:54:46.534Z,57.72
2018-07-04T02:55:46.695Z,57.72
2018-07-04T02:56:46.519Z,58.39
2018-07-04T02:57:46.502Z,58.11
2018-07-04T02:58:46.500Z,58.30
2018-07-04T02:59:46.488Z,58.30
2018-07-04T03:00:46.478Z,57.92
2018-07-04T03:01:46.469Z,58.39
2018-07-04T03:02:46.458Z,58.30
2018-07-04T03:03:46.463Z,58.11
2018-07-04T03:04:46.434Z,57.82
2018-07-04T03:05:46.437Z,57.72
2018-07-04T03:06:46.449Z,58.39
2018-07-04T03:07:46.416Z,58.08
2018-07-04T03:08:46.439Z,57.79
2018-07-04T03:09:46.409Z,58.27
2018-07-04T03:10:46.394Z,58.27
2018-07-04T03:11:46.420Z,58.75
2018-07-04T03:12:46.378Z,58.75
2018-07-04T03:13:46.368Z,58.84
2018-07-04T03:14:46.388Z,58.46
2018-07-04T03:15:46.347Z,58.94
2018-07-04T03:16:46.335Z,59.23
2018-07-04T03:17:46.427Z,59.33
2018-07-04T03:18:46.309Z,59.13
2018-07-04T03:19:46.340Z,59.42
2018-07-04T03:20:46.306Z,59.52
2018-07-04T03:21:46.291Z,59.42
2018-07-04T03:22:46.310Z,59.52
2018-07-04T03:23:46.261Z,59.23
2018-07-04T03:24:46.442Z,59.52
2018-07-04T03:25:46.253Z,59.52
2018-07-04T03:26:46.249Z,59.42
2018-07-04T03:27:46.240Z,59.80
2018-07-04T03:28:46.236Z,59.80
2018-07-04T03:29:46.220Z,59.71
2018-07-04T03:30:46.232Z,59.71
2018-07-04T03:31:46.207Z,59.80
2018-07-04T03:32:46.192Z,59.71
2018-07-04T03:33:46.188Z,59.90
2018-07-04T03:34:46.206Z,60.00
2018-07-04T03:35:46.153Z,59.61
2018-07-04T03:36:46.150Z,59.33
2018-07-04T03:37:46.137Z,59.42
2018-07-04T03:38:46.131Z,59.61
2018-07-04T03:39:46.295Z,59.52
2018-07-04T03:40:46.122Z,59.33
2018-07-04T03:41:46.097Z,59.23
2018-07-04T03:42:46.090Z,59.52
2018-07-04T03:43:46.081Z,59.33
2018-07-04T03:44:46.078Z,59.52
2018-07-04T03:45:46.086Z,59.13
2018-07-04T03:46:46.065Z,59.80
2018-07-04T03:47:46.053Z,58.84
2018-07-04T03:48:46.040Z,58.37
2018-07-04T03:49:46.029Z,58.46
2018-07-04T03:50:46.049Z,59.61
2018-07-04T03:51:46.012Z,59.33
2018-07-04T03:52:46.004Z,59.33
2018-07-04T03:53:45.984Z,59.87
2018-07-04T03:54:45.980Z,60.35
2018-07-04T03:55:46.044Z,61.02
2018-07-04T03:56:45.968Z,60.93
2018-07-04T03:57:45.955Z,60.16
2018-07-04T03:58:45.944Z,60.54
2018-07-04T03:59:45.937Z,60.35
2018-07-04T04:00:45.920Z,59.97
2018-07-04T04:01:45.956Z,59.97
2018-07-04T04:02:45.903Z,59.77
2018-07-04T04:03:45.903Z,59.97
2018-07-04T04:04:45.900Z,59.58
2018-07-04T04:05:45.879Z,60.64
2018-07-04T04:06:45.914Z,60.64
2018-07-04T04:07:45.860Z,60.16
2018-07-04T04:08:45.854Z,59.97
2018-07-04T04:09:45.843Z,60.16
2018-07-04T04:10:45.854Z,59.68
2018-07-04T04:11:45.828Z,59.48
2018-07-04T04:12:45.849Z,59.30
2018-07-04T04:13:45.803Z,58.91
2018-07-04T04:14:45.796Z,58.72
2018-07-04T04:15:45.915Z,59.39
2018-07-04T04:16:45.768Z,59.97
2018-07-04T04:17:45.767Z,60.25
2018-07-04T04:18:45.753Z,59.30
2018-07-04T04:19:45.799Z,59.39
2018-07-04T04:20:45.741Z,59.30
2018-07-04T04:21:45.727Z,59.39
2018-07-04T04:22:45.750Z,59.68
2018-07-04T04:23:45.716Z,58.81
2018-07-04T04:24:45.696Z,58.81
2018-07-04T04:25:45.686Z,59.39
2018-07-04T04:26:45.688Z,59.30
2018-07-04T04:27:45.713Z,58.72
2018-07-04T04:28:45.666Z,58.44
2018-07-04T04:29:45.648Z,58.72
2018-07-04T04:30:45.699Z,58.44
2018-07-04T04:31:45.621Z,58.72
2018-07-04T04:32:45.619Z,58.72
2018-07-04T04:33:45.658Z,58.81
2018-07-04T04:34:45.596Z,58.53
2018-07-04T04:35:45.590Z,58.27
2018-07-04T04:36:45.644Z,58.17
2018-07-04T04:37:45.579Z,58.08
2018-07-04T04:38:45.562Z,58.27
2018-07-04T04:39:45.557Z,58.08
2018-07-04T04:40:45.546Z,58.46
2018-07-04T04:41:45.535Z,58.75
2018-07-04T04:42:45.538Z,58.65
2018-07-04T04:43:45.543Z,59.33
2018-07-04T04:44:45.520Z,59.33
2018-07-04T04:45:45.511Z,59.33
2018-07-04T04:46:45.491Z,58.75
2018-07-04T04:47:45.478Z,58.65
2018-07-04T04:48:45.508Z,58.75
2018-07-04T04:49:45.461Z,59.52
2018-07-04T04:50:45.455Z,59.23
2018-07-04T04:51:45.446Z,59.33
2018-07-04T04:52:45.459Z,59.33
2018-07-04T04:53:45.424Z,59.33
2018-07-04T04:54:45.457Z,59.33
2018-07-04T04:55:45.419Z,59.80
2018-07-04T04:56:45.400Z,60.57
2018-07-04T04:57:45.390Z,60.00
2018-07-04T04:58:45.382Z,59.90
2018-07-04T04:59:45.367Z,59.23
2018-07-04T05:00:45.394Z,59.61
2018-07-04T05:01:45.349Z,59.71
2018-07-04T05:02:45.332Z,59.61
2018-07-04T05:03:45.337Z,59.33
2018-07-04T05:04:45.329Z,59.61
2018-07-04T05:05:45.318Z,59.42
2018-07-04T05:06:45.307Z,59.33
2018-07-04T05:07:45.344Z,59.55
2018-07-04T05:08:45.448Z,59.36
2018-07-04T05:09:45.276Z,59.83
2018-07-04T05:10:45.271Z,60.03
2018-07-04T05:11:45.269Z,60.03
2018-07-04T05:12:45.250Z,59.83
2018-07-04T05:13:45.234Z,59.74
2018-07-04T05:14:45.233Z,59.93
2018-07-04T05:15:45.399Z,60.12
2018-07-04T05:16:45.219Z,60.22
2018-07-04T05:17:45.201Z,60.22
2018-07-04T05:18:45.195Z,60.60
2018-07-04T05:19:45.196Z,60.31
2018-07-04T05:20:45.242Z,60.92
2018-07-04T05:21:45.171Z,61.08
2018-07-04T05:22:45.163Z,61.56
2018-07-04T05:23:45.154Z,61.18
2018-07-04T05:24:45.152Z,61.27
2018-07-04T05:25:45.133Z,61.78
2018-07-04T05:26:45.158Z,62.36
2018-07-04T05:27:45.130Z,62.16
2018-07-04T05:28:45.106Z,61.49
2018-07-04T05:29:45.099Z,61.59
2018-07-04T05:30:45.155Z,62.45
2018-07-04T05:31:45.118Z,62.93
2018-07-04T05:32:45.177Z,62.26
2018-07-04T05:33:45.067Z,62.45
2018-07-04T05:34:45.055Z,62.84
2018-07-04T05:35:45.055Z,63.22
2018-07-04T05:36:45.178Z,62.84
2018-07-04T05:37:45.049Z,62.84
2018-07-04T05:38:45.024Z,63.12
2018-07-04T05:39:45.019Z,63.22
2018-07-04T05:40:45.010Z,63.42
2018-07-04T05:41:45.001Z,63.32
2018-07-04T05:42:45.024Z,63.22
2018-07-04T05:43:44.986Z,62.74
2018-07-04T05:44:44.972Z,62.74
2018-07-04T05:45:44.975Z,62.55
2018-07-04T05:46:44.959Z,62.74
2018-07-04T05:47:45.316Z,63.12
2018-07-04T05:48:44.936Z,62.74
2018-07-04T05:49:44.934Z,63.22
2018-07-04T05:50:44.919Z,62.93
2018-07-04T05:51:44.908Z,62.55
2018-07-04T05:52:44.910Z,62.65
2018-07-04T05:53:44.964Z,63.42
2018-07-04T05:54:44.890Z,63.32
2018-07-04T05:55:44.879Z,63.60
2018-07-04T05:56:44.862Z,63.45
2018-07-04T05:57:44.864Z,62.93
2018-07-04T05:58:44.857Z,62.96
2018-07-04T05:59:44.855Z,63.22
2018-07-04T06:00:44.837Z,63.22
2018-07-04T06:01:44.815Z,62.93
2018-07-04T06:02:44.875Z,62.87
2018-07-04T06:03:44.863Z,63.06
2018-07-04T06:04:44.805Z,62.87
2018-07-04T06:05:44.855Z,62.96
2018-07-04T06:06:44.779Z,63.16
2018-07-04T06:07:44.778Z,63.35
2018-07-04T06:08:45.074Z,62.77
2018-07-04T06:09:44.756Z,64.59
2018-07-04T06:10:44.768Z,64.02
2018-07-04T06:11:44.740Z,63.73
2018-07-04T06:12:44.732Z,63.73
2018-07-04T06:13:44.721Z,63.25
2018-07-04T06:14:44.767Z,63.06
2018-07-04T06:15:44.717Z,63.54
2018-07-04T06:16:44.730Z,62.87
2018-07-04T06:17:44.821Z,63.06
2018-07-04T06:18:44.692Z,63.35
2018-07-04T06:19:44.703Z,63.25
2018-07-04T06:20:44.673Z,62.87
2018-07-04T06:21:44.692Z,62.99
2018-07-04T06:22:44.653Z,63.35
2018-07-04T06:23:44.647Z,64.31
2018-07-04T06:24:44.676Z,63.64
2018-07-04T06:25:44.616Z,63.73
2018-07-04T06:26:44.663Z,63.57
2018-07-04T06:27:44.606Z,64.31
2018-07-04T06:28:44.602Z,62.87
2018-07-04T06:29:44.597Z,62.90
2018-07-04T06:30:45.940Z,63.96
2018-07-04T06:31:44.584Z,64.72
2018-07-04T06:32:44.576Z,65.01
2018-07-04T06:33:44.558Z,64.82
2018-07-04T06:34:44.554Z,64.72
2018-07-04T06:35:44.537Z,63.86
2018-07-04T06:36:44.554Z,64.25
2018-07-04T06:37:44.526Z,64.05
2018-07-04T06:38:44.528Z,63.48
2018-07-04T06:39:44.519Z,62.99
2018-07-04T06:40:44.537Z,62.71
2018-07-04T06:41:44.498Z,62.99
2018-07-04T06:42:44.524Z,63.12
2018-07-04T06:43:44.479Z,62.61
2018-07-04T06:44:44.479Z,62.55
2018-07-04T06:45:44.493Z,62.74
2018-07-04T06:46:44.452Z,62.74
2018-07-04T06:47:44.464Z,63.51
2018-07-04T06:48:44.450Z,62.84
2018-07-04T06:49:44.425Z,62.55
2018-07-04T06:50:44.482Z,62.45
2018-07-04T06:51:44.436Z,63.02
2018-07-04T06:52:44.440Z,63.22
2018-07-04T06:53:44.414Z,62.84
2018-07-04T06:54:44.395Z,63.22
2018-07-04T06:55:44.390Z,63.32
2018-07-04T06:56:44.396Z,62.93
2018-07-04T06:57:44.516Z,62.35
2018-07-04T06:58:44.370Z,62.93
2018-07-04T06:59:44.406Z,62.35
2018-07-04T07:00:44.354Z,62.74
2018-07-04T07:01:44.402Z,62.64
2018-07-04T07:02:44.345Z,63.22
2018-07-04T07:03:44.369Z,64.47
2018-07-04T07:04:44.388Z,64.47
2018-07-04T07:05:44.315Z,63.41
2018-07-04T07:06:44.315Z,64.12
2018-07-04T07:07:44.290Z,63.64
2018-07-04T07:08:44.285Z,63.25
2018-07-04T07:09:44.298Z,63.25
2018-07-04T07:10:44.311Z,63.25
2018-07-04T07:11:44.304Z,63.54
2018-07-04T07:12:44.256Z,63.06
2018-07-04T07:13:44.252Z,63.15
2018-07-04T07:14:44.303Z,62.96
2018-07-04T07:15:44.245Z,62.68
2018-07-04T07:16:44.255Z,62.96
2018-07-04T07:17:44.219Z,62.38
2018-07-04T07:18:44.221Z,62.77
2018-07-04T07:19:44.217Z,62.00
2018-07-04T07:20:44.264Z,62.77
2018-07-04T07:21:44.209Z,63.15
2018-07-04T07:22:44.196Z,63.15
2018-07-04T07:23:44.191Z,62.68
2018-07-04T07:24:44.185Z,62.58
2018-07-04T07:25:44.159Z,62.68
2018-07-04T07:26:44.188Z,62.00
2018-07-04T07:27:44.219Z,62.51
2018-07-04T07:28:44.145Z,62.19
2018-07-04T07:29:44.133Z,61.74
2018-07-04T07:30:44.129Z,61.84
2018-07-04T07:31:44.867Z,61.65
2018-07-04T07:32:44.233Z,61.74
2018-07-04T07:33:44.764Z,62.13
2018-07-04T07:34:44.278Z,62.03
2018-07-04T07:35:44.103Z,61.94
2018-07-04T07:36:44.103Z,61.74
2018-07-04T07:37:44.125Z,61.26
2018-07-04T07:38:44.089Z,61.16
2018-07-04T07:39:44.068Z,61.65
2018-07-04T07:40:44.180Z,61.74
2018-07-04T07:41:44.535Z,61.16
2018-07-04T07:42:44.055Z,61.07
2018-07-04T07:43:44.032Z,60.78
2018-07-04T07:44:44.033Z,61.55
2018-07-04T07:45:44.033Z,61.16
2018-07-04T07:46:44.023Z,60.39
2018-07-04T07:47:44.041Z,60.62
2018-07-04T07:48:44.081Z,60.81
2018-07-04T07:49:43.988Z,60.91
2018-07-04T07:50:44.036Z,60.42
2018-07-04T07:53:39.678Z,61.29
2018-07-04T07:54:38.074Z,60.62
2018-07-04T07:55:40.664Z,60.72
2018-07-04T07:56:38.061Z,60.42
2018-07-04T07:57:38.168Z,60.91
2018-07-04T07:58:45.804Z,60.72
2018-07-04T07:59:38.085Z,60.91
2018-07-04T08:00:38.068Z,60.42
2018-07-04T08:01:48.342Z,60.42
2018-07-04T08:03:29.195Z,61.29
2018-07-04T08:03:38.042Z,61.49
2018-07-04T08:04:38.099Z,61.19
2018-07-04T08:05:38.043Z,61.19
2018-07-04T08:06:38.008Z,60.75
2018-07-04T08:07:38.004Z,60.75
2018-07-04T08:08:37.976Z,60.91
2018-07-04T08:09:38.024Z,60.84
2018-07-04T08:10:37.977Z,60.94
2018-07-04T08:11:37.971Z,61.13
2018-07-04T08:12:37.974Z,62.09
2018-07-04T08:13:37.959Z,61.32
2018-07-04T08:14:37.980Z,61.71
2018-07-04T08:15:37.942Z,61.80
2018-07-04T08:16:38.077Z,62.00
2018-07-04T08:17:37.932Z,61.52
2018-07-04T08:18:38.886Z,62.09
2018-07-04T08:19:37.936Z,62.67
2018-07-04T08:20:37.906Z,62.77
2018-07-04T08:21:37.955Z,62.57
2018-07-04T08:22:37.945Z,62.90
2018-07-04T08:23:37.909Z,62.70
2018-07-04T08:24:37.887Z,63.28
2018-07-04T08:25:37.980Z,62.60
2018-07-04T08:26:37.863Z,62.90
2018-07-04T08:27:37.909Z,63.09
2018-07-04T08:28:38.294Z,62.90
2018-07-04T08:29:37.850Z,62.41
2018-07-04T08:30:37.862Z,62.03
2018-07-04T08:31:37.849Z,61.93
2018-07-04T08:32:37.837Z,61.87
2018-07-04T08:33:37.833Z,62.15
2018-07-04T08:34:37.829Z,61.68
2018-07-04T08:35:37.825Z,61.48
2018-07-04T08:36:37.811Z,61.80
2018-07-04T08:37:37.811Z,61.51
2018-07-04T08:38:37.797Z,61.90
2018-07-04T08:39:37.807Z,60.45
2018-07-04T08:40:37.789Z,60.38
2018-07-04T08:41:37.803Z,60.48
2018-07-04T08:42:37.775Z,60.19
2018-07-04T08:43:37.772Z,59.61
2018-07-04T08:44:37.953Z,59.32
2018-07-04T08:45:37.763Z,59.23
2018-07-04T08:46:37.763Z,59.90
2018-07-04T08:47:37.777Z,60.03
2018-07-04T08:48:37.752Z,58.77
2018-07-04T08:49:37.753Z,57.54
2018-07-04T08:50:37.800Z,58.32
2018-07-04T08:51:37.746Z,57.57
2018-07-04T08:52:37.787Z,56.03
2018-07-04T08:53:37.743Z,55.47
2018-07-04T08:54:37.746Z,55.87
2018-07-04T08:55:37.747Z,55.41
2018-07-04T08:56:37.737Z,55.31
2018-07-04T08:57:37.727Z,55.43
2018-07-04T08:58:37.740Z,55.36
2018-07-04T08:59:37.721Z,55.00
2018-07-04T09:00:37.808Z,54.52
2018-07-04T09:01:37.734Z,51.25
2018-07-04T09:02:37.735Z,50.70
2018-07-04T09:03:37.732Z,50.60
2018-07-04T09:04:37.727Z,50.43
2018-07-04T09:05:37.788Z,51.31
2018-07-04T09:06:37.748Z,51.62
2018-07-04T09:07:37.764Z,50.77
2018-07-04T09:08:37.737Z,48.44
2018-07-04T09:09:37.732Z,48.44
2018-07-04T09:10:37.758Z,48.85
2018-07-04T09:11:37.787Z,48.95
2018-07-04T09:12:37.738Z,48.58
2018-07-04T09:13:37.738Z,48.51
2018-07-04T09:14:37.741Z,45.98
2018-07-04T09:15:37.774Z,47.27
2018-07-04T09:16:37.767Z,47.08
2018-07-04T09:17:37.805Z,47.27
2018-07-04T09:18:37.741Z,46.61
2018-07-04T09:19:37.760Z,47.13
2018-07-04T09:20:37.760Z,44.40
2018-07-04T09:21:37.751Z,45.29
2018-07-04T09:22:37.751Z,45.59
2018-07-04T09:23:37.805Z,45.32
2018-07-04T09:24:37.827Z,45.32
2018-07-04T09:25:37.766Z,45.03
2018-07-04T09:26:37.773Z,45.54
2018-07-04T09:27:37.838Z,45.26
2018-07-04T09:28:37.787Z,42.32
2018-07-04T09:29:37.791Z,43.12
2018-07-04T09:30:37.787Z,44.29
2018-07-04T09:31:37.806Z,43.82
2018-07-04T09:32:37.840Z,43.24
2018-07-04T09:33:37.807Z,41.95
2018-07-04T09:34:37.807Z,42.14
2018-07-04T09:35:37.810Z,42.55
2018-07-04T09:36:37.817Z,42.75
2018-07-04T09:37:37.819Z,43.14
2018-07-04T09:38:37.832Z,40.33
2018-07-04T09:39:37.825Z,40.33
2018-07-04T09:40:37.823Z,41.21
2018-07-04T09:41:37.842Z,40.23
2018-07-04T09:42:37.848Z,40.82
2018-07-04T09:43:37.846Z,41.62
2018-07-04T09:44:37.851Z,42.69
2018-07-04T09:45:38.086Z,40.27
2018-07-04T09:46:38.739Z,37.02
2018-07-04T09:47:37.919Z,39.59
2018-07-04T09:48:37.941Z,39.20
2018-07-04T09:49:37.939Z,40.17
2018-07-04T09:50:37.886Z,39.51
2018-07-04T09:51:37.884Z,37.55
2018-07-04T09:52:37.898Z,39.02
2018-07-04T09:53:37.903Z,40.21
2018-07-04T09:54:37.920Z,38.75
2018-07-04T09:55:37.910Z,38.94
2018-07-04T09:56:37.931Z,39.35
2018-07-04T09:57:37.929Z,36.14
2018-07-04T09:58:37.927Z,37.12
2018-07-04T09:59:37.950Z,37.21
2018-07-04T10:00:37.945Z,37.41
2018-07-04T10:01:37.954Z,37.88
2018-07-04T10:02:37.948Z,36.63
2018-07-04T10:03:37.957Z,34.26
2018-07-04T10:04:38.130Z,35.73
2018-07-04T10:05:38.017Z,37.39
2018-07-04T10:06:37.977Z,37.08
2018-07-04T10:07:37.991Z,37.08
2018-07-04T10:08:37.990Z,36.71
2018-07-04T10:09:37.991Z,37.00
2018-07-04T10:10:38.004Z,37.10
2018-07-04T10:11:38.001Z,37.39
2018-07-04T10:12:38.018Z,37.47
2018-07-04T10:13:38.062Z,37.96
2018-07-04T10:14:38.014Z,38.06
2018-07-04T10:15:38.021Z,37.18
2018-07-04T10:16:38.024Z,37.27
2018-07-04T10:17:38.021Z,37.55
2018-07-04T10:18:38.078Z,36.47
2018-07-04T10:19:38.034Z,36.96
2018-07-04T10:20:38.072Z,37.16
2018-07-04T10:21:38.058Z,36.98
2018-07-04T10:22:38.058Z,34.93
2018-07-04T10:23:38.053Z,32.87
2018-07-04T10:24:38.071Z,35.04
2018-07-04T10:25:38.096Z,35.55
2018-07-04T10:26:38.066Z,35.27
2018-07-04T10:27:38.113Z,35.19
2018-07-04T10:28:38.074Z,35.39
2018-07-04T10:29:38.089Z,34.72
2018-07-04T10:30:38.078Z,34.83
2018-07-04T10:31:38.110Z,34.85
2018-07-04T10:32:38.110Z,34.67
2018-07-04T10:33:38.106Z,34.87
2018-07-04T10:34:38.122Z,34.39
2018-07-04T10:35:38.116Z,34.11
2018-07-04T10:36:38.162Z,34.51
2018-07-04T10:37:38.135Z,34.72
2018-07-04T10:38:38.165Z,34.84
2018-07-04T10:39:38.150Z,33.08
2018-07-04T10:40:38.166Z,33.18
2018-07-04T10:41:38.165Z,33.10
2018-07-04T10:42:38.305Z,29.85
2018-07-04T10:43:38.307Z,27.97
2018-07-04T10:44:38.179Z,26.29
2018-07-04T10:45:38.196Z,25.88
2018-07-04T10:46:38.199Z,25.95
2018-07-04T10:47:38.206Z,26.92
2018-07-04T10:48:38.385Z,27.11
2018-07-04T10:49:38.284Z,28.39
2018-07-04T10:50:38.404Z,28.79
2018-07-04T10:51:38.288Z,29.19
2018-07-04T10:52:38.229Z,27.91
2018-07-04T10:53:38.232Z,27.91
2018-07-04T10:54:38.409Z,29.68
2018-07-04T10:55:38.252Z,29.99
2018-07-04T10:56:38.292Z,29.59
2018-07-04T10:57:38.283Z,29.21
2018-07-04T10:58:38.285Z,28.93
2018-07-04T10:59:38.438Z,29.52
2018-07-04T11:00:38.298Z,30.13
2018-07-04T11:01:38.292Z,30.73
2018-07-04T11:02:38.299Z,29.25
2018-07-04T11:03:38.321Z,30.24
2018-07-04T11:04:38.519Z,30.24
2018-07-04T11:05:38.342Z,30.06
2018-07-04T11:06:38.332Z,29.06
2018-07-04T11:07:38.339Z,30.04
2018-07-04T11:08:38.341Z,26.97
2018-07-04T11:09:38.366Z,27.34
2018-07-04T11:10:38.405Z,29.80
2018-07-04T11:11:38.372Z,28.92
2018-07-04T11:12:38.380Z,29.80
2018-07-04T11:13:38.376Z,27.56
2018-07-04T11:14:38.432Z,25.77
2018-07-04T11:15:38.412Z,25.96
2018-07-04T11:16:38.425Z,24.79
2018-07-04T11:17:38.447Z,25.27
2018-07-04T11:18:38.457Z,24.38
2018-07-04T11:19:38.428Z,25.46
2018-07-04T11:20:38.445Z,23.57
2018-07-04T11:21:38.447Z,24.65
2018-07-04T11:22:38.506Z,24.05
2018-07-04T11:23:38.480Z,23.75
2018-07-04T11:24:38.467Z,25.13
2018-07-04T11:25:38.622Z,25.04
2018-07-04T11:26:38.512Z,25.84
2018-07-04T11:27:38.499Z,25.85
2018-07-04T11:28:38.503Z,26.54
2018-07-04T11:29:38.510Z,27.15
2018-07-04T11:30:38.517Z,27.26
2018-07-04T11:31:38.553Z,27.78
2018-07-04T11:32:38.519Z,28.09
2018-07-04T11:33:38.540Z,28.00
2018-07-04T11:34:38.541Z,23.76
2018-07-04T11:35:38.568Z,22.28
2018-07-04T11:36:38.595Z,21.39
2018-07-04T11:37:38.569Z,22.86
2018-07-04T11:38:38.594Z,21.98
2018-07-04T11:39:38.574Z,22.27
2018-07-04T11:40:38.591Z,21.48
2018-07-04T11:41:38.605Z,22.86
2018-07-04T11:42:38.664Z,24.06
2018-07-04T11:43:38.617Z,24.56
2018-07-04T11:44:38.626Z,25.35
2018-07-04T11:45:38.631Z,25.37
2018-07-04T11:46:38.640Z,25.67
2018-07-04T11:47:38.647Z,25.97
2018-07-04T11:48:38.781Z,22.72
2018-07-04T11:49:38.671Z,23.21
2018-07-04T11:50:38.674Z,22.31
2018-07-04T11:51:38.679Z,23.50
2018-07-04T11:52:38.693Z,17.56
2018-07-04T11:53:38.708Z,18.04
2018-07-04T11:54:38.775Z,19.30
2018-07-04T11:55:38.705Z,20.97
2018-07-04T11:56:38.732Z,21.25
2018-07-04T11:57:38.732Z,22.12
2018-07-04T11:58:38.738Z,20.24
2018-07-04T11:59:38.777Z,20.82
2018-07-04T12:00:38.746Z,20.62
2018-07-04T12:01:38.760Z,21.80
2018-07-04T12:02:38.761Z,22.77
2018-07-04T12:03:38.762Z,23.16
2018-07-04T12:04:38.915Z,23.65
2018-07-04T12:05:38.772Z,23.16
2018-07-04T12:06:38.779Z,22.06
2018-07-04T12:07:38.794Z,22.34
2018-07-04T12:08:38.780Z,23.11
2018-07-04T12:09:38.788Z,22.71
2018-07-04T12:10:38.808Z,23.20
2018-07-04T12:11:38.796Z,22.89
2018-07-04T12:12:38.805Z,24.46
2018-07-04T12:13:38.807Z,24.07
2018-07-04T12:14:38.810Z,25.23
2018-07-04T12:15:38.858Z,24.92
2018-07-04T12:16:38.821Z,25.21
2018-07-04T12:17:38.823Z,25.70
2018-07-04T12:18:38.825Z,25.68
2018-07-04T12:19:38.830Z,26.17
2018-07-04T12:20:38.837Z,26.76
2018-07-04T12:21:38.829Z,26.17
2018-07-04T12:22:38.836Z,26.17
2018-07-04T12:23:38.832Z,26.76
2018-07-04T12:24:38.833Z,27.91
2018-07-04T12:25:38.882Z,27.91
2018-07-04T12:26:38.890Z,28.01
2018-07-04T12:27:38.844Z,27.33
2018-07-04T12:28:39.006Z,27.91
2018-07-04T12:29:38.864Z,28.19
2018-07-04T12:30:38.852Z,28.50
2018-07-04T12:31:38.849Z,28.59
2018-07-04T12:32:38.974Z,28.89
2018-07-04T12:33:38.849Z,28.99
2018-07-04T12:34:38.854Z,29.18
2018-07-04T12:35:38.851Z,29.67
2018-07-04T12:36:38.867Z,29.67
2018-07-04T12:37:38.855Z,29.57
2018-07-04T12:38:38.865Z,29.96
2018-07-04T12:39:38.858Z,29.85
2018-07-04T12:40:38.914Z,29.66
2018-07-04T12:41:38.854Z,29.36
2018-07-04T12:42:38.943Z,28.68
2018-07-04T12:43:38.884Z,29.17
2018-07-04T12:44:38.863Z,29.66
2018-07-04T12:45:39.584Z,29.66
2018-07-04T12:46:38.882Z,29.07
2018-07-04T12:47:38.868Z,29.64
2018-07-04T12:48:38.871Z,29.83
2018-07-04T12:49:38.911Z,29.64
2018-07-04T12:50:39.011Z,29.95
2018-07-04T12:51:38.857Z,29.93
2018-07-04T12:52:38.870Z,29.35
2018-07-04T12:53:38.875Z,29.25
2018-07-04T12:54:38.986Z,29.54